Cheyenne Wells, Colorado
Current Conditions -  °F | °C
As of 8:53 AM on Sunday 25 Jan 2015 (Local Time) from KITR Reporting Station
Clear Clear  
Wind Chill: 29°   Ceiling: Unl
Heat Index: 40°   Visibility: 10mi
Dew Point: 29°   Wind: 26mph
Humidity: 65%   Direction: 320°NW
Pressure: 30.13"   Gusts: NA
Location:  38.82°N, 102.35°W
Report Text: KITR 251553Z AUTO 32023KT 10SM CLR 04/M02 A3013 RMK AO2 PK WND 33027/1553 SLP199 T00441017
Loading
Personal Weather Stations






























Interactive Weather Map New forecast layout! Learn more

10-Day Weather Forecast

Advertisements
Track Severe Weather on mobile